Latest Coastal Weather Observations for Melbourne (Olympic Park)

IDV60701

Issued at 4:02 pm EST Sunday 20 August 2017 (issued every 10 minutes, with the page automatically refreshed every 10 minutes)

About coastal observations | Map of coastal stations | Coastal observations for VIC | Marine services | Other Formats
Station Details ID: 086338 Name: MELBOURNE (OLYMPIC PARK) Lat: -37.83 Lon: 144.98 Height: 7.53 m
Data from the previous 72 hours. | See also: Recent months at Melbourne (Olympic Park)
Date/Time
EST
Temp
°C
Wind Pressure Rain since
9am
mm
Weather Cloud Vis
km
Sea
Height
m
Swell
Dir  Spd
kts
Gust
kts
hPa Trend Height
m
Period
s
Dir
20/04:00pm 12.4 SSW 6 9 1020.4 - 0.0 - - 10 - - - -
20/03:30pm 12.4 NW 5 7 1020.6 - 0.0 - - 10 - - - -
20/03:00pm 12.9 SW 3 6 1020.9 - 0.0 - - 10 - - - -
20/02:30pm 12.2 SW 5 6 1021.7 - 0.0 - - 10 - - - -
20/02:00pm 11.7 S 5 9 1022.3 - 0.0 - - 10 - - - -
20/01:30pm 12.5 SW 3 6 1023.0 - 0.0 - - 10 - - - -
20/01:00pm 12.3 NE 5 8 1023.6 - 0.0 - - 10 - - - -
20/12:30pm 12.1 ENE 2 5 1024.1 - 0.0 - - 10 - - - -
20/12:00pm 11.1 NW 4 6 1024.8 - 0.0 - - 10 - - - -
20/11:30am 10.9 W 2 5 1025.5 - 0.0 - - 10 - - - -
20/11:00am 11.0 ESE 2 5 1026.0 - 0.0 - - 10 - - - -
20/10:30am 9.8 E 2 4 1026.4 - 0.0 - - 10 - - - -
20/10:00am 10.1 CALM 0 0 1027.0 - 0.0 - - 10 - - - -
20/09:30am 8.4 NNE 4 5 1027.3 - 0.0 - - 10 - - - -
20/09:00am 7.1 NE 4 5 1027.6 - 2.0 - - 10 - - - -
20/08:30am 6.0 NNE 4 6 1027.5 - 2.0 - - 10 - - - -
20/08:00am 5.5 ENE 4 5 1027.5 - 2.0 - - 10 - - - -
20/07:30am 5.2 NE 4 6 1027.3 - 2.0 - - 10 - - - -
20/07:00am 5.6 NE 2 5 1027.1 - 2.0 - - 10 - - - -
20/06:30am 5.8 ESE 4 5 1027.2 - 2.0 - - 10 - - - -
20/06:00am 5.9 NNW 3 4 1027.0 - 2.0 - - 10 - - - -
20/05:30am 5.6 CALM 0 3 1027.1 - 2.0 - - 10 - - - -
20/05:00am 5.5 SE 1 4 1027.0 - 2.0 - - 10 - - - -
20/04:30am 6.4 NNW 1 5 1026.6 - 2.0 - - 10 - - - -
20/04:00am 6.5 W 3 5 1026.8 - 2.0 - - 10 - - - -
20/03:30am 5.6 CALM 0 0 1026.9 - 2.0 - - 10 - - - -
20/03:00am 5.7 NE 1 5 1026.8 - 2.0 - - 10 - - - -
20/02:30am 6.3 CALM 0 0 1026.9 - 2.0 - - 10 - - - -
20/02:00am 7.0 NE 5 7 1026.6 - 2.0 - - 10 - - - -
20/01:30am 7.6 WSW 2 6 1026.8 - 2.0 - - 10 - - - -
20/01:00am 7.8 SW 4 6 1027.2 - 2.0 - - 10 - - - -
20/12:30am 7.8 WSW 3 6 1027.4 - 2.0 - - 10 - - - -
20/12:00am 7.4 WNW 3 5 1027.6 - 1.8 - - 10 - - - -
 
Date/Time
EST
Temp
°C
Wind Pressure Rain since
9am
mm
Weather Cloud Vis
km
Sea
Height
m
Swell
Dir  Spd
kts
Gust
kts
hPa Trend Height
m
Period
s
Dir
19/11:30pm 6.2 CALM 0 0 1027.5 - 1.8 - - 10 - - - -
19/11:00pm 6.9 CALM 0 0 1027.6 - 1.8 - - 10 - - - -
19/10:30pm 6.7 W 1 3 1027.8 - 1.8 - - 10 - - - -
19/10:00pm 7.1 CALM 0 0 1027.7 - 1.8 - - 10 - - - -
19/09:30pm 7.6 CALM 0 0 1027.6 - 1.8 - - 10 - - - -
19/09:00pm 8.2 CALM 0 3 1027.5 - 1.6 Showers - 10 - - - -
19/08:30pm 7.8 CALM 0 1 1027.3 - 1.4 - - 10 - - - -
19/08:00pm 7.4 CALM 0 0 1027.3 - 1.4 - - 10 - - - -
19/07:30pm 8.4 CALM 0 0 1027.3 - 1.4 - - 10 - - - -
19/07:00pm 9.3 S 2 4 1027.4 - 1.4 - - 10 - - - -
19/06:30pm 9.8 S 5 8 1027.4 - 1.4 - - 10 - - - -
19/06:00pm 10.0 SSW 6 9 1027.2 - 1.4 - - 10 - - - -
19/05:30pm 9.9 SSW 3 6 1027.0 - 1.4 - - 10 - - - -
19/05:00pm 10.8 SSW 4 7 1026.8 - 1.4 - - 10 - - - -
19/04:30pm 11.3 SSW 4 8 1026.7 - 1.4 - - 10 - - - -
19/04:00pm 11.1 SSW 6 11 1026.5 - 1.4 - - 10 - - - -
19/03:30pm 11.3 SSW 5 8 1026.5 - 1.4 - - 10 - - - -
19/03:00pm 10.9 SW 6 8 1026.5 - 1.4 - - 10 - - - -
19/02:30pm 10.8 SSW 5 7 1026.6 - 1.4 - - 10 - - - -
19/02:00pm 11.0 SW 5 9 1026.6 - 1.4 - - 10 - - - -
19/01:30pm 10.7 S 6 11 1026.6 - 1.4 - - 10 - - - -
19/01:00pm 10.4 S 6 9 1026.7 - 1.4 - - 10 - - - -
19/12:30pm 10.3 SW 6 9 1026.7 - 1.4 - - 10 - - - -
19/12:00pm 9.1 S 5 10 1026.8 - 1.4 - - 10 - - - -
19/11:30am 9.4 S 4 8 1026.8 - 1.4 - - 10 - - - -
19/11:05am 8.0 SW 3 5 1026.9 - 1.4 - - 10 - - - -
19/11:00am 7.5 SW 4 8 1026.9 - 1.4 - - 10 - - - -
19/10:44am 7.5 SSW 8 16 1027.2 - 1.0 - - 7 - - - -
19/10:30am 9.5 SW 5 7 1026.7 - 0.0 - - 10 - - - -
19/10:00am 9.0 W 5 10 1026.5 - 0.0 - - 10 - - - -
19/09:30am 8.2 W 3 5 1026.4 - 0.0 - - 10 - - - -
19/09:00am 7.2 W 4 7 1026.2 - 7.2 Showers - 10 - - - -
19/08:30am 6.5 W 6 9 1025.7 - 7.2 - - 10 - - - -
19/08:00am 6.6 W 4 7 1025.2 - 7.2 - - 10 - - - -
19/07:30am 6.3 E 1 6 1024.8 - 7.2 - - 10 - - - -
19/07:00am 6.4 WSW 3 6 1024.4 - 7.2 - - 10 - - - -
19/06:49am 6.4 WNW 3 5 1024.1 - 7.2 - - 10 - - - -
19/06:45am 6.3 WNW 3 5 1024.0 - 7.2 - - 10 - - - -
19/06:34am 6.4 WNW 4 7 1023.9 - 7.2 - - 5 - - - -
19/06:30am 6.3 WSW 5 9 1023.8 - 7.0 - - 4 - - - -
19/06:24am 6.2 SSW 5 9 1024.0 - 6.6 - - 7 - - - -
19/06:00am 6.2 WSW 5 9 1023.0 - 6.0 - - 10 - - - -
19/05:30am 6.0 WSW 4 9 1022.7 - 6.0 - - 10 - - - -
19/05:00am 6.2 W 6 8 1022.4 - 6.0 - - 10 - - - -
19/04:30am 6.3 W 6 11 1022.2 - 5.8 - - 10 - - - -
19/04:00am 6.4 WSW 4 6 1021.8 - 5.8 - - 10 - - - -
19/03:30am 6.5 WSW 5 8 1021.6 - 5.8 - - 10 - - - -
19/03:00am 6.4 W 4 8 1021.4 - 5.8 - - 10 - - - -
19/02:30am 6.7 WSW 5 10 1021.3 - 5.8 - - 10 - - - -
19/02:00am 6.8 W 5 10 1021.2 - 5.8 - - 10 - - - -
19/01:30am 6.8 W 5 9 1021.1 - 5.8 - - 10 - - - -
19/01:00am 6.7 W 5 7 1020.8 - 5.8 - - 10 - - - -
19/12:30am 7.1 W 5 9 1020.8 - 5.8 - - 10 - - - -
19/12:00am 7.2 W 8 16 1020.7 - 5.6 Showers - 10 - - - -
 
Date/Time
EST
Temp
°C
Wind Pressure Rain since
9am
mm
Weather Cloud Vis
km
Sea
Height
m
Swell
Dir  Spd
kts
Gust
kts
hPa Trend Height
m
Period
s
Dir
18/11:30pm 7.3 W 5 9 1020.6 - 5.2 - - 10 - - - -
18/11:02pm 7.3 W 6 10 1020.1 - 5.0 - - 10 - - - -
18/11:00pm 7.3 W 5 9 1020.1 - 5.0 - - 10 - - - -
18/10:46pm 7.4 W 7 15 1020.1 - 4.8 - - 7 - - - -
18/10:30pm 7.7 WSW 4 10 1020.0 - 4.2 - - 10 - - - -
18/10:00pm 7.8 WSW 5 8 1019.7 - 3.4 - - 10 - - - -
18/09:30pm 8.0 WSW 5 13 1019.4 - 3.0 - - 10 - - - -
18/09:00pm 8.3 WNW 6 9 1018.9 - 3.0 Rain - 10 - - - -
18/08:30pm 8.3 WSW 6 9 1018.7 - 3.0 - - 10 - - - -
18/08:00pm 8.4 WSW 6 11 1018.1 - 2.8 - - 10 - - - -
18/07:30pm 8.3 W 6 11 1017.6 - 2.8 - - 10 - - - -
18/07:00pm 8.5 W 6 10 1017.2 - 2.6 - - 10 - - - -
18/06:32pm 8.1 W 5 10 1016.7 - 2.6 - - 10 - - - -
18/06:30pm 8.1 W 5 10 1016.6 - 2.6 - - 10 - - - -
18/06:15pm 8.3 W 7 15 1016.6 - 2.4 - - 6 - - - -
18/06:00pm 8.7 W 5 13 1016.2 - 1.6 Showers - 10 - - - -
18/05:30pm 9.2 W 7 12 1015.6 - 1.4 - - 10 - - - -
18/05:00pm 9.4 WSW 7 13 1015.2 - 1.2 - - 10 - - - -
18/04:30pm 10.4 W 9 17 1014.4 - 1.0 - - 10 - - - -
18/04:00pm 11.1 W 8 16 1013.7 - 1.0 - - 10 - - - -
18/03:30pm 10.7 WSW 8 15 1013.4 - 1.0 - - 10 - - - -
18/03:00pm 9.6 WSW 6 11 1013.1 - 1.0 Rain - 10 - - - -
18/02:30pm 10.8 WSW 7 13 1012.6 - 0.6 - - 10 - - - -
18/02:00pm 11.0 W 7 11 1011.8 - 0.4 - - 10 - - - -
18/01:30pm 9.9 W 6 10 1011.7 - 0.4 - - 10 - - - -
18/01:00pm 8.0 W 6 12 1011.7 - 0.4 - - 10 - - - -
18/12:30pm 9.6 SW 9 20 1011.3 - 0.4 - - 9 - - - -
18/12:00pm 11.5 W 9 16 1010.9 - 0.0 - - 10 - - - -
18/11:30am 11.2 WNW 10 19 1010.9 - 0.0 - - 10 - - - -
18/11:00am 11.2 WNW 8 20 1010.4 - 0.0 - - 10 - - - -
18/10:30am 10.8 W 9 16 1010.3 - 0.0 - - 10 - - - -
18/10:00am 10.6 W 7 12 1009.9 - 0.0 - - 10 - - - -
18/09:30am 9.2 WNW 8 16 1009.8 - 0.0 - - 10 - - - -
18/09:00am 9.6 NW 10 18 1009.2 - 2.8 - - 10 - - - -
18/08:30am 9.6 WNW 7 12 1008.8 - 2.8 - - 10 - - - -
18/08:00am 8.9 NW 7 13 1008.3 - 2.8 - - 10 - - - -
18/07:30am 8.8 WNW 7 11 1007.9 - 2.8 - - 10 - - - -
18/07:00am 8.7 WNW 6 9 1007.4 - 2.8 - - 10 - - - -
18/06:30am 8.7 WNW 8 16 1006.7 - 2.8 - - 10 - - - -
18/06:00am 8.9 W 6 12 1006.4 - 2.8 - - 10 - - - -
18/05:30am 8.9 NW 8 14 1005.9 - 2.8 - - 10 - - - -
18/05:00am 9.0 WNW 6 12 1005.8 - 2.8 - - 10 - - - -
18/04:30am 9.2 NW 7 12 1005.2 - 2.8 - - 10 - - - -
18/04:00am 9.3 NW 7 11 1005.1 - 2.8 - - 10 - - - -
18/03:30am 9.3 NW 6 10 1005.0 - 2.8 - - 10 - - - -
18/03:00am 8.8 NNW 4 6 1004.5 - 2.8 - - 10 - - - -
18/02:30am 8.8 N 7 12 1004.7 - 2.8 - - 10 - - - -
18/02:00am 9.1 NNW 6 11 1004.8 - 2.8 - - 10 - - - -
18/01:30am 9.0 NNW 5 7 1004.8 - 2.8 - - 10 - - - -
18/01:00am 9.2 NNW 5 9 1004.6 - 2.8 - - 10 - - - -
18/12:30am 8.7 NNE 5 9 1004.7 - 2.8 - - 10 - - - -
18/12:00am 8.3 NNE 6 9 1004.7 - 2.8 - - 10 - - - -
 
Date/Time
EST
Temp
°C
Wind Pressure Rain since
9am
mm
Weather Cloud Vis
km
Sea
Height
m
Swell
Dir  Spd
kts
Gust
kts
hPa Trend Height
m
Period
s
Dir
17/11:30pm 9.2 NNE 7 10 1004.5 - 2.8 - - 10 - - - -
17/11:00pm 9.5 NNW 5 12 1004.4 - 2.8 - - 10 - - - -
17/10:30pm 9.7 NNW 5 13 1004.0 - 2.8 - - 10 - - - -
17/10:00pm 9.4 NNW 6 10 1004.2 - 2.8 - - 10 - - - -
17/09:30pm 9.5 NW 7 12 1004.1 - 2.8 - - 10 - - - -
17/09:00pm 9.5 NW 6 12 1004.1 - 2.8 - - 10 - - - -
17/08:30pm 9.2 N 6 8 1003.9 - 2.8 - - 10 - - - -
17/08:00pm 9.1 NNW 7 11 1004.0 - 2.8 - - 10 - - - -
17/07:30pm 9.0 NW 8 12 1004.0 - 2.8 - - 10 - - - -
17/07:00pm 11.1 N 5 10 1003.4 - 2.4 - - 10 - - - -
17/06:30pm 11.3 NW 8 12 1003.1 - 2.4 - - 10 - - - -
17/06:00pm 11.2 NW 7 11 1002.3 - 2.4 - - 10 - - - -
17/05:30pm 10.5 WNW 5 9 1002.2 - 2.4 - - 10 - - - -
17/05:00pm 9.7 WNW 5 8 1002.1 - 2.4 - - 10 - - - -
17/04:58pm 9.6 WNW 5 10 1002.1 - 2.4 - - 10 - - - -
17/04:31pm 9.6 W 13 28 1002.7 - 1.2 - - 6 - - - -
17/04:30pm 10.0 W 12 28 1002.7 - 1.0 - - 8 - - - -
17/04:26pm 12.7 W 9 28 1001.9 - 0.4 - - 10 - - - -

Other Formats:

Comma delimited format used in spreadsheet applications
http://www.bom.gov.au/fwo/IDV60701/IDV60701.95936.axf

JavaScript Object Notation format (JSON) in row-major order
http://www.bom.gov.au/fwo/IDV60701/IDV60701.95936.json